Time;durP1;ratioP1;P1;durP2;ratioP2;P2;SDS_P1;SDS_P2;PMS_P1;PMS_P2;Temp;Humidity;BMP_temperature;BMP_pressure;BME280_temperature;BME280_humidity;BME280_pressure;Samples;Min_cycle;Max_cycle;Signal;HPM_P1;HPM_P2
2022/07/04 00:00:43;;;;;;;4.20;2.65;;;17.60;99.90;;;;;;5050597;28;20029;-84
2022/07/04 00:03:12;;;;;;;9.57;2.90;;;17.60;99.90;;;;;;5048579;28;20036;-82
2022/07/04 00:05:38;;;;;;;4.63;2.97;;;17.50;99.90;;;;;;5048291;28;20045;-84
2022/07/04 00:08:04;;;;;;;7.05;2.70;;;17.40;99.90;;;;;;5049282;28;20026;-85
2022/07/04 00:10:30;;;;;;;6.93;2.97;;;17.30;99.90;;;;;;5043907;28;20125;-84
2022/07/04 00:12:56;;;;;;;2.83;2.55;;;17.30;99.90;;;;;;5065907;28;20136;-85
2022/07/04 00:15:22;;;;;;;5.05;3.08;;;17.30;99.90;;;;;;5067511;28;20041;-86
2022/07/04 00:17:55;;;;;;;6.15;2.65;;;17.20;99.90;;;;;;5049825;28;20032;-85
2022/07/04 00:20:21;;;;;;;8.60;2.75;;;17.20;99.90;;;;;;5050258;28;20025;-85
2022/07/04 00:22:47;;;;;;;3.35;2.40;;;17.20;99.90;;;;;;5061749;28;20031;-83
2022/07/04 00:25:12;;;;;;;7.50;2.55;;;17.20;99.90;;;;;;5050697;28;20519;-85
2022/07/04 00:27:38;;;;;;;4.55;2.83;;;17.20;99.90;;;;;;5060152;28;20028;-83
2022/07/04 00:30:04;;;;;;;5.00;2.67;;;17.20;99.90;;;;;;5070725;28;20028;-85
2022/07/04 00:32:31;;;;;;;6.18;2.78;;;17.10;99.90;;;;;;5066731;28;20033;-84
2022/07/04 00:34:56;;;;;;;5.68;2.58;;;17.10;99.90;;;;;;5049158;28;20029;-83
2022/07/04 00:37:22;;;;;;;11.02;2.80;;;17.00;99.90;;;;;;5065835;28;20025;-83
2022/07/04 00:39:48;;;;;;;5.22;2.67;;;17.00;99.90;;;;;;5048112;28;20029;-84
2022/07/04 00:42:15;;;;;;;3.80;2.70;;;17.00;99.90;;;;;;5064494;28;20095;-84
2022/07/04 00:44:41;;;;;;;2.97;2.50;;;17.00;99.90;;;;;;5047096;28;20037;-84
2022/07/04 00:47:10;;;;;;;14.95;2.80;;;16.90;99.90;;;;;;5047202;28;20128;-85
2022/07/04 00:49:35;;;;;;;8.98;3.17;;;16.90;99.90;;;;;;5048736;28;20025;-84
2022/07/04 00:52:02;;;;;;;5.88;3.05;;;16.90;99.90;;;;;;5046973;28;20031;-83
2022/07/04 00:54:30;;;;;;;5.57;2.67;;;16.80;99.90;;;;;;5048727;28;20033;-83
2022/07/04 00:56:57;;;;;;;3.03;2.70;;;16.80;99.90;;;;;;5048128;28;20090;-83
2022/07/04 00:59:23;;;;;;;6.78;2.42;;;16.80;99.90;;;;;;5050688;28;20036;-85
2022/07/04 01:01:50;;;;;;;7.78;2.72;;;16.80;99.90;;;;;;5058621;28;20040;-86
2022/07/04 01:04:16;;;;;;;7.88;3.17;;;16.70;99.90;;;;;;5044553;28;20028;-83
2022/07/04 01:06:42;;;;;;;2.50;2.30;;;16.80;99.90;;;;;;5050452;28;20029;-83
2022/07/04 01:09:08;;;;;;;4.53;3.20;;;16.80;99.90;;;;;;5048138;28;20028;-85
2022/07/04 01:11:34;;;;;;;8.02;2.85;;;16.70;99.90;;;;;;5056608;28;20036;-83
2022/07/04 01:14:00;;;;;;;6.63;2.65;;;16.70;99.90;;;;;;5047126;28;20108;-84
2022/07/04 01:16:29;;;;;;;3.72;2.67;;;16.60;99.90;;;;;;5048233;28;20124;-85
2022/07/04 01:18:55;;;;;;;4.97;2.80;;;16.60;99.90;;;;;;5065253;28;20025;-83
2022/07/04 01:21:21;;;;;;;7.40;2.90;;;16.60;99.90;;;;;;5048042;28;20094;-83
2022/07/04 01:23:46;;;;;;;7.45;2.55;;;16.50;99.90;;;;;;5048787;28;20090;-83
2022/07/04 01:26:12;;;;;;;3.90;2.53;;;16.50;99.90;;;;;;5047741;28;20024;-84
2022/07/04 01:28:38;;;;;;;6.22;2.58;;;16.50;99.90;;;;;;5064330;28;20498;-83
2022/07/04 01:31:07;;;;;;;7.00;2.95;;;16.40;99.90;;;;;;5061169;28;20037;-84
2022/07/04 01:33:33;;;;;;;3.00;2.70;;;16.40;99.90;;;;;;5048542;28;20032;-84
2022/07/04 01:35:59;;;;;;;5.68;2.83;;;16.30;99.90;;;;;;5047484;28;20056;-84
2022/07/04 01:38:25;;;;;;;8.43;2.78;;;16.30;99.90;;;;;;5047474;28;20081;-84
2022/07/04 01:40:51;;;;;;;4.47;2.90;;;16.30;99.90;;;;;;5049148;28;20029;-84
2022/07/04 01:43:17;;;;;;;9.45;3.25;;;16.20;99.90;;;;;;5047225;28;20067;-83
2022/07/04 01:45:42;;;;;;;5.03;2.47;;;16.10;99.90;;;;;;5063934;28;20052;-83
2022/07/04 01:48:11;;;;;;;4.85;2.90;;;16.10;99.90;;;;;;5030480;28;20033;-84
2022/07/04 01:50:37;;;;;;;4.50;2.70;;;16.10;99.90;;;;;;5049270;28;20469;-83
2022/07/04 01:53:03;;;;;;;4.55;2.53;;;16.10;99.90;;;;;;5063499;28;20045;-82
2022/07/04 01:55:30;;;;;;;6.28;2.83;;;16.10;99.90;;;;;;5048084;28;20091;-82
2022/07/04 01:57:56;;;;;;;4.45;2.92;;;16.10;99.90;;;;;;5048552;28;20029;-84
2022/07/04 02:03:11;;;;;;;5.75;3.20;;;15.90;99.90;;;;;;5042098;28;20024;-84
2022/07/04 02:05:39;;;;;;;10.90;3.00;;;15.90;99.90;;;;;;5047846;28;20018;-85
2022/07/04 02:08:07;;;;;;;7.90;3.00;;;15.80;99.90;;;;;;5027460;28;20029;-83
2022/07/04 02:10:33;;;;;;;4.95;3.08;;;15.80;99.90;;;;;;5060898;28;20029;-84
2022/07/04 02:13:01;;;;;;;4.75;3.20;;;15.80;99.90;;;;;;5047546;28;20037;-83
2022/07/04 02:15:37;;;;;;;3.97;3.03;;;15.80;99.90;;;;;;5066436;28;20043;-84
2022/07/04 02:18:05;;;;;;;5.18;3.05;;;15.70;99.90;;;;;;5034385;28;20025;-84
2022/07/04 02:20:31;;;;;;;6.95;3.00;;;15.70;99.90;;;;;;5051446;28;20060;-84
2022/07/04 02:22:57;;;;;;;3.72;2.78;;;15.70;99.90;;;;;;5059668;28;20025;-84
2022/07/04 02:25:23;;;;;;;8.07;2.92;;;15.70;99.90;;;;;;5050891;28;20381;-83
2022/07/04 02:28:00;;;;;;;6.40;3.03;;;15.60;99.90;;;;;;5066292;28;20517;-85
2022/07/04 02:30:25;;;;;;;6.65;3.22;;;15.60;99.90;;;;;;5067751;28;20037;-85
2022/07/04 02:32:51;;;;;;;5.15;3.17;;;15.50;99.90;;;;;;5050375;28;20033;-84
2022/07/04 02:35:17;;;;;;;4.30;2.75;;;15.50;99.90;;;;;;5050974;28;20033;-83
2022/07/04 02:37:43;;;;;;;6.28;2.83;;;15.50;99.90;;;;;;5058789;28;20074;-83
2022/07/04 02:40:08;;;;;;;6.40;2.90;;;15.50;99.90;;;;;;5050364;28;20017;-83
2022/07/04 02:42:37;;;;;;;5.07;2.97;;;15.50;99.90;;;;;;5058561;28;20025;-84
2022/07/04 02:45:04;;;;;;;5.30;3.42;;;15.40;99.90;;;;;;5072485;28;20029;-83
2022/07/04 02:47:30;;;;;;;5.30;3.17;;;15.40;99.90;;;;;;5058545;28;20040;-84
2022/07/04 02:49:56;;;;;;;7.57;3.22;;;15.40;99.90;;;;;;5050805;28;20470;-83
2022/07/04 02:52:22;;;;;;;8.73;4.35;;;15.30;99.90;;;;;;5050288;28;20087;-83
2022/07/04 02:54:48;;;;;;;6.03;2.97;;;15.20;99.90;;;;;;5049730;28;20033;-83
2022/07/04 02:57:14;;;;;;;3.40;2.92;;;15.20;99.90;;;;;;5049894;28;20044;-84
2022/07/04 02:59:40;;;;;;;6.43;3.63;;;15.10;99.90;;;;;;5051031;28;20029;-84
2022/07/04 03:02:06;;;;;;;6.50;3.60;;;15.10;99.90;;;;;;5050717;28;20456;-83
2022/07/04 03:04:32;;;;;;;12.60;3.60;;;15.00;99.90;;;;;;5049484;28;20037;-84
2022/07/04 03:06:58;;;;;;;7.88;3.25;;;14.90;99.90;;;;;;5050067;28;20108;-84
2022/07/04 03:09:26;;;;;;;7.82;3.40;;;14.80;99.90;;;;;;5032553;28;20025;-84
2022/07/04 03:11:54;;;;;;;5.35;3.33;;;14.80;99.90;;;;;;5051347;28;20883;-84
2022/07/04 03:14:20;;;;;;;5.80;3.50;;;14.70;99.90;;;;;;5049370;28;20358;-83
2022/07/04 03:16:46;;;;;;;6.05;3.30;;;14.70;99.90;;;;;;5051058;28;20653;-83
2022/07/04 03:19:12;;;;;;;5.55;3.70;;;14.70;99.90;;;;;;5066159;28;20029;-83
2022/07/04 03:21:38;;;;;;;7.35;3.88;;;14.60;99.90;;;;;;5049455;28;20025;-83
2022/07/04 03:24:04;;;;;;;10.20;3.63;;;14.60;99.90;;;;;;5056672;28;20501;-83
2022/07/04 03:26:33;;;;;;;7.75;3.47;;;14.60;99.90;;;;;;5048077;28;20033;-85
2022/07/04 03:29:00;;;;;;;4.50;3.47;;;14.60;99.90;;;;;;5050592;28;20036;-84
2022/07/04 03:31:28;;;;;;;5.43;3.28;;;14.60;99.90;;;;;;5065711;28;20386;-84
2022/07/04 03:33:54;;;;;;;4.22;3.08;;;14.60;99.90;;;;;;5049080;28;20060;-83
2022/07/04 03:36:20;;;;;;;4.15;3.30;;;14.70;99.90;;;;;;5066065;28;20090;-82
2022/07/04 03:38:46;;;;;;;5.70;3.50;;;14.70;99.90;;;;;;5048823;28;20032;-84
2022/07/04 03:41:12;;;;;;;5.40;3.45;;;14.60;99.90;;;;;;5049923;28;20082;-83
2022/07/04 03:43:38;;;;;;;5.68;3.40;;;14.60;99.90;;;;;;5049104;28;20096;-83
2022/07/04 03:46:04;;;;;;;8.70;3.70;;;14.70;99.90;;;;;;5046631;28;20021;-84
2022/07/04 03:48:29;;;;;;;9.13;3.83;;;14.70;99.90;;;;;;5048295;28;20092;-84
2022/07/04 03:50:55;;;;;;;8.20;3.85;;;14.70;99.90;;;;;;5052402;28;20033;-83
2022/07/04 03:53:21;;;;;;;3.95;3.15;;;14.70;99.90;;;;;;5039856;28;20040;-83
2022/07/04 03:55:50;;;;;;;6.55;3.95;;;14.60;99.90;;;;;;5048478;28;20036;-82
2022/07/04 03:58:15;;;;;;;8.23;3.55;;;14.60;99.90;;;;;;5049286;28;20031;-83
2022/07/04 04:00:41;;;;;;;7.07;3.97;;;14.60;99.90;;;;;;5051280;28;20033;-84
2022/07/04 04:05:26;;;;;;;7.03;3.30;;;14.60;99.90;;;;;;5046084;28;20083;-84
2022/07/04 04:05:55;;;;;;;5.32;3.38;;;14.70;99.90;;;;;;5051179;28;20481;-83
2022/07/04 04:08:21;;;;;;;7.47;4.40;;;14.60;99.90;;;;;;5051890;28;20039;-84
2022/07/04 04:10:46;;;;;;;9.73;3.70;;;14.70;99.90;;;;;;5053847;28;20120;-83
2022/07/04 04:13:12;;;;;;;3.83;3.33;;;14.70;99.90;;;;;;5075182;28;20024;-83
2022/07/04 04:15:38;;;;;;;9.77;3.55;;;14.80;99.90;;;;;;5045969;28;20032;-83
2022/07/04 04:18:07;;;;;;;4.38;3.20;;;14.80;99.90;;;;;;5028827;28;20021;-84
2022/07/04 04:20:33;;;;;;;6.95;4.22;;;14.80;99.90;;;;;;5049173;28;20473;-84
2022/07/04 04:22:58;;;;;;;5.35;3.33;;;14.90;99.90;;;;;;5046736;28;20044;-83
2022/07/04 04:25:24;;;;;;;6.55;3.38;;;14.90;99.90;;;;;;5047390;28;20110;-84
2022/07/04 04:27:50;;;;;;;6.93;3.35;;;14.90;99.90;;;;;;5059450;28;20036;-83
2022/07/04 04:30:15;;;;;;;5.90;3.78;;;15.00;99.90;;;;;;5048594;28;20028;-84
2022/07/04 04:32:43;;;;;;;5.45;3.10;;;15.00;99.90;;;;;;5049087;28;20115;-85
2022/07/04 04:35:09;;;;;;;3.78;3.28;;;15.10;99.90;;;;;;5029927;28;20026;-83
2022/07/04 04:37:35;;;;;;;8.27;3.58;;;15.20;99.90;;;;;;5047994;28;20037;-84
2022/07/04 04:40:00;;;;;;;7.63;3.88;;;15.20;99.90;;;;;;5046277;28;20021;-83
2022/07/04 04:42:26;;;;;;;5.80;3.40;;;15.20;99.90;;;;;;5047354;28;20388;-83
2022/07/04 04:44:52;;;;;;;8.55;3.50;;;15.30;99.90;;;;;;5055509;28;20036;-83
2022/07/04 04:47:17;;;;;;;7.15;3.90;;;15.30;99.90;;;;;;5063971;28;20032;-83
2022/07/04 04:49:43;;;;;;;12.07;3.65;;;15.40;99.90;;;;;;5047338;28;20032;-85
2022/07/04 04:52:09;;;;;;;6.05;3.40;;;15.40;99.90;;;;;;5031058;28;20103;-83
2022/07/04 04:54:35;;;;;;;7.90;3.55;;;15.40;99.90;;;;;;5063842;28;20122;-83
2022/07/04 04:57:01;;;;;;;6.15;4.40;;;15.40;99.90;;;;;;5047431;28;20056;-83
2022/07/04 04:59:29;;;;;;;5.63;3.50;;;15.50;99.90;;;;;;5064394;28;20037;-83
2022/07/04 05:01:55;;;;;;;6.07;3.30;;;15.50;99.90;;;;;;5048158;28;20067;-83
2022/07/04 05:04:28;;;;;;;5.60;3.63;;;15.60;99.90;;;;;;5048654;28;20029;-85
2022/07/04 05:06:54;;;;;;;7.25;3.58;;;15.60;99.90;;;;;;5046611;28;20033;-83
2022/07/04 05:09:20;;;;;;;4.18;3.60;;;15.70;99.90;;;;;;5063264;28;20033;-84
2022/07/04 05:11:47;;;;;;;5.63;3.58;;;15.70;99.90;;;;;;5063204;28;20036;-83
2022/07/04 05:14:13;;;;;;;4.85;3.25;;;15.80;99.90;;;;;;5046004;28;20393;-84
2022/07/04 05:16:39;;;;;;;7.13;3.33;;;15.80;99.90;;;;;;5046537;28;20025;-83
2022/07/04 05:19:05;;;;;;;5.65;3.20;;;15.80;99.90;;;;;;5046516;28;20067;-83
2022/07/04 05:21:31;;;;;;;13.32;3.90;;;15.90;99.90;;;;;;5046296;28;20025;-84
2022/07/04 05:23:56;;;;;;;7.07;3.85;;;15.90;99.90;;;;;;5039828;28;20708;-82
2022/07/04 05:26:22;;;;;;;6.63;3.83;;;16.00;99.90;;;;;;5028721;28;20036;-83
2022/07/04 05:28:48;;;;;;;9.38;3.88;;;16.10;99.90;;;;;;5052817;28;20143;-82
2022/07/04 05:31:14;;;;;;;5.03;3.53;;;16.10;99.90;;;;;;5060660;28;20078;-82
2022/07/04 05:33:42;;;;;;;7.22;3.38;;;16.20;99.90;;;;;;5048148;28;20024;-83
2022/07/04 05:36:08;;;;;;;6.53;3.33;;;16.20;99.90;;;;;;5040528;28;20051;-82
2022/07/04 05:38:34;;;;;;;6.07;3.38;;;16.40;99.90;;;;;;5060790;28;20036;-83
2022/07/04 05:41:00;;;;;;;4.05;3.08;;;16.40;99.90;;;;;;5063252;28;20017;-82
2022/07/04 05:43:26;;;;;;;6.10;3.47;;;16.50;99.90;;;;;;5046389;28;20043;-83
2022/07/04 05:45:52;;;;;;;4.47;3.35;;;16.50;99.90;;;;;;5048854;28;20101;-84
2022/07/04 05:48:20;;;;;;;3.80;3.17;;;16.60;99.90;;;;;;5028163;28;20037;-84
2022/07/04 05:50:45;;;;;;;5.32;3.50;;;16.70;99.90;;;;;;5047980;28;20437;-84
2022/07/04 05:53:11;;;;;;;5.22;3.85;;;16.80;99.90;;;;;;5054536;28;20032;-84
2022/07/04 05:55:37;;;;;;;7.80;3.20;;;16.90;99.90;;;;;;5054433;28;20025;-84
2022/07/04 05:58:02;;;;;;;4.43;3.25;;;16.90;99.90;;;;;;5059750;28;20029;-85
2022/07/04 06:00:28;;;;;;;4.57;3.40;;;17.00;99.90;;;;;;5058248;28;20064;-85
2022/07/04 06:02:54;;;;;;;10.77;3.33;;;17.10;99.90;;;;;;5054497;28;20041;-83
2022/07/04 06:05:20;;;;;;;9.60;3.75;;;17.10;99.90;;;;;;5051772;28;20474;-84
2022/07/04 06:07:48;;;;;;;4.20;2.97;;;17.20;99.90;;;;;;5050967;28;20107;-84
2022/07/04 06:10:14;;;;;;;4.30;3.47;;;17.20;99.90;;;;;;5053287;28;20033;-86
2022/07/04 06:12:40;;;;;;;5.63;3.03;;;17.30;99.90;;;;;;5067372;28;20485;-84
2022/07/04 06:15:06;;;;;;;6.53;3.45;;;17.40;99.90;;;;;;5078581;28;20067;-85
2022/07/04 06:17:41;;;;;;;4.97;3.30;;;17.50;99.90;;;;;;5039603;28;20029;-83
2022/07/04 06:20:08;;;;;;;3.85;3.40;;;17.50;99.90;;;;;;5043656;28;20462;-84
2022/07/04 06:22:45;;;;;;;4.30;2.88;;;17.50;99.90;;;;;;5036686;28;20066;-85
2022/07/04 06:25:17;;;;;;;5.18;3.42;;;17.60;99.90;;;;;;5052474;28;20021;-83
2022/07/04 06:27:43;;;;;;;;;;;17.60;99.90;;;;;;5059158;28;20049;-84
2022/07/04 06:30:10;;;;;;;10.43;3.15;;;17.70;99.90;;;;;;5095156;28;19917;-86
2022/07/04 06:32:55;;;;;;;6.57;3.20;;;17.70;99.90;;;;;;5077633;28;20028;-86
2022/07/04 06:38:18;;;;;;;4.63;3.42;;;17.80;99.90;;;;;;5068806;28;20336;-86
2022/07/04 06:40:43;;;;;;;21.95;4.15;;;17.90;99.90;;;;;;5054212;28;20037;-85
2022/07/04 06:43:10;;;;;;;11.43;3.75;;;17.80;99.90;;;;;;5053672;28;20079;-83
2022/07/04 06:45:36;;;;;;;9.30;3.50;;;17.70;99.90;;;;;;5033375;28;20047;-83
2022/07/04 06:48:07;;;;;;;8.57;3.50;;;17.80;99.90;;;;;;5055316;28;20037;-84
2022/07/04 06:50:33;;;;;;;8.85;3.65;;;17.80;99.90;;;;;;5055084;28;20371;-84
2022/07/04 06:53:00;;;;;;;3.90;3.47;;;18.00;99.90;;;;;;5051859;28;20032;-82
2022/07/04 06:55:27;;;;;;;7.18;3.78;;;18.10;99.90;;;;;;5051498;28;20512;-83
2022/07/04 06:58:04;;;;;;;4.97;3.20;;;18.10;99.90;;;;;;5052497;28;20032;-85
2022/07/04 07:00:30;;;;;;;6.25;3.33;;;18.20;99.90;;;;;;5072109;28;20146;-84
2022/07/04 07:02:58;;;;;;;4.95;3.40;;;18.30;99.90;;;;;;5051451;28;20060;-85
2022/07/04 07:05:27;;;;;;;4.20;3.80;;;18.30;99.90;;;;;;5069947;28;20040;-83
2022/07/04 07:07:59;;;;;;;3.42;2.80;;;18.40;99.90;;;;;;5053464;28;20040;-86
2022/07/04 07:10:28;;;;;;;7.10;3.40;;;18.50;99.90;;;;;;5053698;28;20059;-85
2022/07/04 07:12:53;;;;;;;3.85;2.95;;;18.80;99.90;;;;;;5088787;28;20025;-86
2022/07/04 07:15:19;;;;;;;6.60;3.17;;;19.00;99.90;;;;;;5047236;28;20032;-84
2022/07/04 07:17:45;;;;;;;5.80;3.00;;;19.40;99.90;;;;;;5032952;28;20076;-88
2022/07/04 07:20:13;;;;;;;2.67;2.42;;;20.00;99.90;;;;;;5083501;28;20200;-86
2022/07/04 07:22:42;;;;;;;6.10;2.70;;;20.90;99.90;;;;;;5050923;28;20546;-85
2022/07/04 07:25:10;;;;;;;4.38;2.58;;;21.90;99.90;;;;;;5069982;28;20025;-85
2022/07/04 07:27:36;;;;;;;3.90;2.10;;;22.80;99.90;;;;;;5054298;28;20108;-86
2022/07/04 07:30:03;;;;;;;7.85;2.50;;;24.00;99.90;;;;;;5069401;28;20052;-84
2022/07/04 07:32:29;;;;;;;5.10;1.80;;;24.80;99.90;;;;;;5058608;28;20059;-86
2022/07/04 07:34:54;;;;;;;2.95;2.00;;;25.60;99.90;;;;;;5071142;28;20040;-86
2022/07/04 07:37:21;;;;;;;5.40;2.00;;;26.20;99.90;;;;;;5055166;28;20494;-86
2022/07/04 07:39:48;;;;;;;5.22;2.20;;;26.60;99.90;;;;;;5064032;28;20029;-86
2022/07/04 07:42:14;;;;;;;4.45;2.30;;;27.00;99.90;;;;;;5056491;28;20108;-86
2022/07/04 07:44:39;;;;;;;5.80;2.17;;;26.40;99.90;;;;;;5057284;28;20058;-87
2022/07/04 07:47:06;;;;;;;2.78;2.10;;;25.00;99.90;;;;;;5055297;28;20025;-86
2022/07/04 07:49:32;;;;;;;2.55;2.20;;;23.60;99.90;;;;;;5055935;28;20339;-86
2022/07/04 07:52:01;;;;;;;5.88;2.55;;;22.40;99.90;;;;;;5054066;28;20071;-86
2022/07/04 07:54:26;;;;;;;4.10;2.65;;;21.50;99.90;;;;;;5056765;28;20051;-85
2022/07/04 07:56:52;;;;;;;4.07;2.60;;;20.90;99.90;;;;;;5057185;28;20048;-85
2022/07/04 07:59:18;;;;;;;3.35;2.72;;;20.80;99.90;;;;;;5057221;28;20086;-85
2022/07/04 08:01:43;;;;;;;4.50;2.20;;;20.70;99.90;;;;;;5054795;28;20039;-85
2022/07/04 08:06:53;;;;;;;11.43;2.03;;;23.40;99.90;;;;;;5072187;28;20029;-85
2022/07/04 08:09:19;;;;;;;9.25;1.73;;;25.00;99.90;;;;;;5070730;28;20128;-85
2022/07/04 08:11:44;;;;;;;4.28;1.65;;;26.00;99.90;;;;;;5054946;28;20051;-84
2022/07/04 08:14:10;;;;;;;5.22;1.77;;;26.40;99.90;;;;;;5070588;28;20025;-84
2022/07/04 08:16:36;;;;;;;3.40;1.85;;;27.10;99.90;;;;;;5055188;28;20716;-85
2022/07/04 08:19:03;;;;;;;5.18;1.77;;;27.50;98.40;;;;;;5039253;28;20044;-85
2022/07/04 08:21:29;;;;;;;11.07;2.47;;;27.60;97.10;;;;;;5037388;28;20033;-86
2022/07/04 08:23:55;;;;;;;3.58;1.40;;;28.60;94.80;;;;;;5053343;28;20028;-84
2022/07/04 08:26:20;;;;;;;3.33;2.60;;;29.30;92.60;;;;;;5053445;28;20502;-84
2022/07/04 08:28:46;;;;;;;1.80;1.40;;;28.50;93.20;;;;;;5038184;28;20405;-85
2022/07/04 08:31:14;;;;;;;3.42;1.80;;;28.20;92.30;;;;;;5055295;28;20033;-85
2022/07/04 08:33:40;;;;;;;3.70;2.25;;;28.80;92.10;;;;;;5056777;28;20013;-88
2022/07/04 08:36:06;;;;;;;5.07;1.67;;;29.20;90.70;;;;;;5059289;28;20037;-86
2022/07/04 08:38:31;;;;;;;8.88;1.52;;;29.60;90.90;;;;;;5054532;28;20375;-86
2022/07/04 08:41:01;;;;;;;2.80;1.48;;;30.10;90.00;;;;;;5038710;28;20384;-87
2022/07/04 08:43:36;;;;;;;4.38;2.10;;;30.80;85.60;;;;;;5054761;28;20025;-86
2022/07/04 08:46:06;;;;;;;4.07;1.63;;;31.40;81.30;;;;;;5054485;28;20082;-86
2022/07/04 08:48:33;;;;;;;2.38;1.25;;;31.40;79.30;;;;;;5041446;28;20367;-88
2022/07/04 08:51:23;;;;;;;2.88;1.58;;;31.20;80.10;;;;;;5071899;28;20036;-86
2022/07/04 08:53:51;;;;;;;2.50;1.17;;;30.20;80.20;;;;;;5068849;28;20040;-87
2022/07/04 08:59:04;;;;;;;2.35;1.40;;;29.00;80.70;;;;;;5052536;28;20029;-86
2022/07/04 09:01:30;;;;;;;4.68;1.73;;;29.40;78.90;;;;;;5053738;28;20025;-85
2022/07/04 09:03:56;;;;;;;3.90;1.15;;;29.30;79.00;;;;;;5052844;28;20426;-85
2022/07/04 09:06:26;;;;;;;3.47;1.30;;;29.10;77.60;;;;;;5037072;28;20041;-86
2022/07/04 09:08:53;;;;;;;3.95;1.20;;;28.40;80.20;;;;;;5054088;28;20040;-84
2022/07/04 09:11:18;;;;;;;1.27;1.08;;;29.10;75.80;;;;;;5060373;28;20041;-86
2022/07/04 09:13:44;;;;;;;4.93;1.20;;;29.00;74.50;;;;;;5098106;28;20020;-88
2022/07/04 09:16:10;;;;;;;3.33;1.42;;;28.60;74.80;;;;;;5072944;28;20021;-89
2022/07/04 09:18:44;;;;;;;4.53;1.55;;;28.50;74.70;;;;;;5062076;28;20108;-86
2022/07/04 09:21:10;;;;;;;4.53;1.08;;;28.40;73.70;;;;;;5047498;28;20482;-85
2022/07/04 09:23:40;;;;;;;1.83;1.02;;;27.90;74.40;;;;;;5057714;28;20104;-86
2022/07/04 09:26:19;;;;;;;2.60;1.17;;;27.90;76.30;;;;;;5045672;28;20029;-87
2022/07/04 09:28:54;;;;;;;2.28;1.45;;;28.10;74.50;;;;;;5072750;28;20576;-86
2022/07/04 09:31:25;;;;;;;2.42;1.10;;;28.40;75.20;;;;;;5058329;28;20376;-85
2022/07/04 09:34:07;;;;;;;4.60;1.38;;;28.20;72.40;;;;;;5054793;28;20048;-84
2022/07/04 09:36:39;;;;;;;2.17;1.20;;;28.10;72.20;;;;;;5054356;28;20091;-87
2022/07/04 09:39:17;;;;;;;2.35;0.98;;;28.10;71.00;;;;;;5065769;28;20037;-87
2022/07/04 09:42:06;;;;;;;4.82;1.40;;;27.70;72.60;;;;;;5065586;28;20437;-84
2022/07/04 09:44:34;;;;;;;2.95;1.38;;;28.40;72.70;;;;;;5051928;28;20075;-85
2022/07/04 09:47:28;;;;;;;8.13;1.50;;;28.40;74.40;;;;;;5067879;28;20025;-84
2022/07/04 09:50:03;;;;;;;3.92;1.27;;;28.40;74.70;;;;;;5042745;28;20551;-87
2022/07/04 09:52:30;;;;;;;5.15;1.65;;;28.20;75.40;;;;;;5050682;28;20029;-88
2022/07/04 09:55:05;;;;;;;3.35;1.35;;;27.90;75.00;;;;;;5052187;28;20049;-86
2022/07/04 09:57:32;;;;;;;5.18;1.30;;;28.50;74.90;;;;;;5049486;28;20061;-86
2022/07/04 10:00:26;;;;;;;5.68;1.25;;;27.90;73.90;;;;;;5050158;28;20040;-86
2022/07/04 10:02:53;;;;;;;6.15;1.52;;;27.80;73.80;;;;;;5064787;28;20044;-87
2022/07/04 10:05:29;;;;;;;1.42;1.20;;;28.00;73.50;;;;;;5048989;28;20420;-86
2022/07/04 10:07:58;;;;;;;2.78;1.10;;;28.00;72.50;;;;;;5034610;28;20370;-86
2022/07/04 10:10:31;;;;;;;1.40;1.08;;;28.70;73.40;;;;;;5066161;28;20044;-86
2022/07/04 10:13:05;;;;;;;2.05;1.38;;;29.30;72.70;;;;;;5049088;28;20035;-85
2022/07/04 10:15:33;;;;;;;5.18;1.55;;;30.10;71.60;;;;;;5066363;28;20033;-87
2022/07/04 10:17:59;;;;;;;4.40;1.30;;;30.60;71.90;;;;;;5066454;28;20033;-84
2022/07/04 10:20:25;;;;;;;5.13;1.20;;;29.90;69.40;;;;;;5051691;28;20071;-86
2022/07/04 10:22:51;;;;;;;3.42;1.40;;;29.00;72.70;;;;;;5052316;28;20044;-85
2022/07/04 10:25:18;;;;;;;3.15;0.98;;;28.40;73.10;;;;;;5050226;28;20120;-87
2022/07/04 10:27:44;;;;;;;2.67;1.15;;;27.80;74.10;;;;;;5049912;28;20025;-86
2022/07/04 10:30:15;;;;;;;4.32;1.50;;;27.70;73.40;;;;;;5049748;28;20029;-87
2022/07/04 10:32:44;;;;;;;1.60;1.13;;;27.50;75.10;;;;;;5049617;28;20052;-86
2022/07/04 10:35:13;;;;;;;5.75;1.55;;;27.40;75.40;;;;;;5032390;28;20032;-86
2022/07/04 10:38:02;;;;;;;1.73;1.20;;;27.60;75.70;;;;;;5063201;28;20516;-86
2022/07/04 10:40:44;;;;;;;5.63;1.20;;;27.60;75.30;;;;;;5067756;28;20521;-86
2022/07/04 10:43:46;;;;;;;1.50;1.25;;;26.80;75.50;;;;;;5071660;28;20028;-85
2022/07/04 10:46:14;;;;;;;3.97;1.45;;;27.10;78.90;;;;;;5055468;28;20041;-87
2022/07/04 10:48:51;;;;;;;3.30;1.27;;;27.40;75.70;;;;;;5055362;28;20119;-86
2022/07/04 10:51:39;;;;;;;5.68;1.40;;;26.90;75.00;;;;;;5069811;28;20032;-87
2022/07/04 10:54:04;;;;;;;2.95;1.20;;;26.90;76.70;;;;;;5052866;28;20025;-87
2022/07/04 10:56:49;;;;;;;3.83;1.50;;;26.90;76.60;;;;;;5055848;28;20162;-86
2022/07/04 10:59:27;;;;;;;3.80;1.15;;;27.20;77.70;;;;;;5054292;28;20025;-86
2022/07/04 11:02:08;;;;;;;5.53;1.20;;;27.70;74.10;;;;;;5069112;28;20029;-86
2022/07/04 11:05:05;;;;;;;3.80;1.45;;;27.70;75.10;;;;;;5056935;28;20029;-84
2022/07/04 11:07:36;;;;;;;2.10;1.25;;;27.00;75.20;;;;;;5069304;28;20033;-87
2022/07/04 11:10:12;;;;;;;3.15;1.50;;;26.10;78.30;;;;;;5053682;28;20035;-85
2022/07/04 11:12:59;;;;;;;1.75;1.48;;;25.40;81.00;;;;;;5053538;28;20115;-85
2022/07/04 11:15:24;;;;;;;6.10;1.30;;;24.60;82.50;;;;;;5045642;28;20072;-86
2022/07/04 11:17:51;;;;;;;4.85;1.38;;;24.60;82.80;;;;;;5071192;28;20520;-86
2022/07/04 11:20:20;;;;;;;4.05;1.75;;;24.60;83.50;;;;;;5073379;28;20025;-84
2022/07/04 11:22:46;;;;;;;2.35;1.33;;;25.30;82.00;;;;;;5037435;28;20112;-85
2022/07/04 11:25:15;;;;;;;2.40;1.20;;;26.10;78.90;;;;;;5052919;28;20722;-85
2022/07/04 11:27:42;;;;;;;3.85;1.40;;;26.50;79.70;;;;;;5052448;28;20044;-84
2022/07/04 11:30:09;;;;;;;2.55;1.50;;;26.60;79.80;;;;;;5052833;28;20033;-85
2022/07/04 11:32:36;;;;;;;4.18;1.85;;;27.00;78.80;;;;;;5041869;28;20041;-86
2022/07/04 11:35:06;;;;;;;2.72;1.60;;;26.90;78.80;;;;;;5053530;28;20422;-86
2022/07/04 11:37:44;;;;;;;2.07;1.37;;;26.90;77.00;;;;;;5037615;28;20045;-87
2022/07/04 11:45:52;;;;;;;6.03;1.60;;;27.20;77.50;;;;;;5051491;28;20124;-86
2022/07/04 11:48:25;;;;;;;2.38;1.40;;;27.20;76.00;;;;;;5051374;28;20033;-85
2022/07/04 11:50:51;;;;;;;5.50;1.63;;;26.70;77.00;;;;;;5052092;28;20037;-85
2022/07/04 11:53:17;;;;;;;6.03;1.88;;;26.60;78.40;;;;;;5051149;28;20316;-85
2022/07/04 11:55:53;;;;;;;1.73;1.33;;;26.60;79.10;;;;;;5034740;28;20497;-87
2022/07/04 11:58:19;;;;;;;1.65;1.10;;;26.60;79.40;;;;;;5053809;28;20063;-84
2022/07/04 12:00:45;;;;;;;3.95;1.30;;;26.60;79.60;;;;;;5054218;28;20033;-86
2022/07/04 12:03:10;;;;;;;3.58;1.25;;;26.60;77.40;;;;;;5052559;28;20035;-85
2022/07/04 12:05:37;;;;;;;2.30;1.20;;;26.80;78.10;;;;;;5053430;28;20552;-86
2022/07/04 12:08:05;;;;;;;3.35;1.50;;;27.20;78.20;;;;;;5052503;28;20033;-85
2022/07/04 12:10:32;;;;;;;4.63;1.52;;;27.40;76.40;;;;;;5048350;28;20056;-86
2022/07/04 12:13:06;;;;;;;4.53;1.50;;;26.90;77.20;;;;;;5057826;28;20032;-86
2022/07/04 12:15:42;;;;;;;3.63;1.40;;;26.90;75.40;;;;;;5074968;28;20033;-86
2022/07/04 12:18:22;;;;;;;3.85;1.30;;;27.00;75.40;;;;;;5035819;28;20112;-88
2022/07/04 12:20:50;;;;;;;3.08;1.50;;;26.90;75.00;;;;;;5056523;28;20037;-86
2022/07/04 12:23:18;;;;;;;1.60;1.05;;;26.80;72.10;;;;;;5054897;28;20063;-86
2022/07/04 12:25:46;;;;;;;1.70;1.15;;;26.70;72.50;;;;;;5061111;28;20747;-86
2022/07/04 12:28:14;;;;;;;2.42;1.15;;;26.90;74.40;;;;;;5052549;28;20116;-86
2022/07/04 12:30:57;;;;;;;1.65;1.13;;;27.40;73.90;;;;;;5053028;28;20039;-85
2022/07/04 12:33:25;;;;;;;4.75;1.10;;;27.60;73.50;;;;;;5047602;28;20559;-87
2022/07/04 12:35:51;;;;;;;1.52;1.10;;;27.30;70.60;;;;;;5051931;28;20558;-86
2022/07/04 12:38:33;;;;;;;4.60;1.20;;;27.10;71.40;;;;;;5036578;28;20111;-85
2022/07/04 12:41:01;;;;;;;4.05;1.10;;;27.00;71.70;;;;;;5052132;28;20043;-85
2022/07/04 12:43:42;;;;;;;1.75;0.98;;;27.30;66.60;;;;;;5050959;28;20456;-86
2022/07/04 12:46:23;;;;;;;2.38;1.33;;;28.10;69.20;;;;;;5064060;28;20025;-89
2022/07/04 12:48:50;;;;;;;3.53;0.98;;;28.50;68.30;;;;;;5080675;28;20075;-89
2022/07/04 12:51:19;;;;;;;4.35;1.17;;;27.90;69.70;;;;;;5073134;28;20076;-88
2022/07/04 12:53:48;;;;;;;3.50;1.35;;;27.90;70.80;;;;;;5055426;28;20078;-86
2022/07/04 12:56:33;;;;;;;1.10;0.93;;;27.60;72.20;;;;;;5052287;28;20082;-86
2022/07/04 12:59:05;;;;;;;9.52;2.17;;;27.80;70.30;;;;;;5084690;28;20037;-87
2022/07/04 13:01:31;;;;;;;3.85;1.42;;;28.00;69.80;;;;;;5051052;28;20032;-86
2022/07/04 13:03:58;;;;;;;3.42;1.40;;;28.30;68.60;;;;;;5050762;28;20028;-87
2022/07/04 13:06:24;;;;;;;2.47;1.13;;;28.10;69.30;;;;;;5068364;28;20504;-87
2022/07/04 13:08:51;;;;;;;2.58;1.10;;;28.80;68.80;;;;;;5050413;28;20100;-86